createdAt,value
2022-12-15T00:00:19.535Z,18.95
2022-12-15T00:03:05.385Z,17.73
2022-12-15T00:05:53.581Z,18.42
2022-12-15T00:08:45.344Z,18.25
2022-12-15T00:11:35.758Z,18.75
2022-12-15T00:14:22.651Z,18.85
2022-12-15T00:17:08.333Z,20.45
2022-12-15T00:19:53.995Z,20.02
2022-12-15T00:22:39.678Z,19.75
2022-12-15T00:25:25.801Z,19.20
2022-12-15T00:28:11.339Z,19.45
2022-12-15T00:31:02.093Z,19.27
2022-12-15T00:33:48.382Z,24.52
2022-12-15T00:36:33.891Z,20.05
2022-12-15T00:39:03.902Z,18.27
2022-12-15T00:41:31.449Z,20.38
2022-12-15T00:43:58.555Z,20.13
2022-12-15T00:46:44.198Z,19.52
2022-12-15T00:49:31.352Z,19.73
2022-12-15T00:52:16.937Z,19.08
2022-12-15T00:55:02.565Z,20.10
2022-12-15T00:57:48.419Z,18.70
2022-12-15T01:00:34.057Z,20.48
2022-12-15T01:03:19.982Z,19.60
2022-12-15T01:06:05.548Z,21.30
2022-12-15T01:08:51.272Z,20.45
2022-12-15T01:11:36.983Z,20.33
2022-12-15T01:14:22.714Z,18.70
2022-12-15T01:17:08.625Z,18.13
2022-12-15T01:19:54.309Z,17.58
2022-12-15T01:22:21.433Z,17.55
2022-12-15T01:24:48.832Z,16.77
2022-12-15T01:27:16.113Z,16.83
2022-12-15T01:29:43.412Z,14.82
2022-12-15T01:32:10.682Z,16.40
2022-12-15T01:34:37.798Z,18.25
2022-12-15T01:37:05.216Z,17.10
2022-12-15T01:39:52.398Z,16.95
2022-12-15T01:42:19.716Z,16.73
2022-12-15T01:44:51.122Z,17.17
2022-12-15T01:47:23.036Z,16.25
2022-12-15T01:49:51.030Z,19.13
2022-12-15T01:52:18.925Z,17.50
2022-12-15T01:55:01.470Z,17.20
2022-12-15T01:57:32.896Z,17.27
2022-12-15T02:00:03.065Z,17.17
2022-12-15T02:02:39.979Z,17.70
2022-12-15T02:05:08.877Z,18.67
2022-12-15T02:07:35.996Z,16.90
2022-12-15T02:10:07.502Z,19.02
2022-12-15T02:13:22.371Z,18.27
2022-12-15T02:16:11.080Z,18.55
2022-12-15T02:19:04.122Z,17.95
2022-12-15T02:21:56.792Z,19.98
2022-12-15T02:24:36.158Z,18.97
2022-12-15T02:27:20.475Z,20.88
2022-12-15T02:30:06.325Z,19.33
2022-12-15T02:32:43.657Z,20.38
2022-12-15T02:35:17.437Z,21.20
2022-12-15T02:37:45.460Z,20.80
2022-12-15T02:40:17.592Z,20.20
2022-12-15T02:42:58.500Z,18.27
2022-12-15T02:46:04.767Z,18.55
2022-12-15T02:48:59.624Z,17.30
2022-12-15T02:51:26.890Z,17.48
2022-12-15T02:54:28.218Z,17.70
2022-12-15T02:57:30.385Z,19.02
2022-12-15T03:00:11.047Z,16.33
2022-12-15T03:02:46.565Z,16.90
2022-12-15T03:05:15.595Z,18.80
2022-12-15T03:07:43.077Z,18.10
2022-12-15T03:10:13.282Z,17.17
2022-12-15T03:12:40.820Z,18.13
2022-12-15T03:15:08.355Z,19.33
2022-12-15T03:17:35.634Z,18.25
2022-12-15T03:20:03.218Z,18.60
2022-12-15T03:22:30.614Z,18.33
2022-12-15T03:24:58.253Z,20.38
2022-12-15T03:27:25.619Z,19.95
2022-12-15T03:29:52.841Z,20.50
2022-12-15T03:32:20.172Z,18.98
2022-12-15T03:34:47.490Z,18.63
2022-12-15T03:37:14.548Z,21.27
2022-12-15T03:39:41.680Z,19.90
2022-12-15T03:42:08.974Z,16.10
2022-12-15T03:44:36.178Z,16.48
2022-12-15T03:47:04.008Z,16.92
2022-12-15T03:49:31.414Z,17.27
2022-12-15T03:51:58.555Z,18.63
2022-12-15T03:54:25.771Z,20.15
2022-12-15T03:56:53.037Z,20.92
2022-12-15T03:59:20.165Z,27.35
2022-12-15T04:01:49.341Z,25.45
2022-12-15T04:04:16.782Z,28.13
2022-12-15T04:06:43.930Z,29.23
2022-12-15T04:09:11.021Z,27.23
2022-12-15T04:11:38.238Z,29.30
2022-12-15T04:14:05.364Z,26.60
2022-12-15T04:16:32.592Z,25.88
2022-12-15T04:19:18.340Z,23.23
2022-12-15T04:21:45.453Z,22.02
2022-12-15T04:24:31.163Z,22.98
2022-12-15T04:27:16.753Z,19.33
2022-12-15T04:30:02.266Z,18.98
2022-12-15T04:32:49.694Z,19.20
2022-12-15T04:35:35.826Z,18.80
2022-12-15T04:38:21.951Z,19.30
2022-12-15T04:41:07.629Z,21.83
2022-12-15T04:43:53.180Z,23.35
2022-12-15T04:46:39.010Z,24.95
2022-12-15T04:49:24.715Z,20.05
2022-12-15T04:52:10.398Z,20.52
2022-12-15T04:54:55.975Z,26.50
2022-12-15T04:57:41.683Z,22.17
2022-12-15T05:00:27.872Z,19.15
2022-12-15T05:03:18.150Z,18.73
2022-12-15T05:06:04.233Z,18.90
2022-12-15T05:08:50.403Z,19.95
2022-12-15T05:11:37.111Z,23.60
2022-12-15T05:14:23.656Z,25.33
2022-12-15T05:17:09.304Z,27.15
2022-12-15T05:19:54.938Z,27.27
2022-12-15T05:22:40.786Z,27.48
2022-12-15T05:25:26.992Z,25.08
2022-12-15T05:28:13.062Z,25.15
2022-12-15T05:30:58.716Z,29.58
2022-12-15T05:33:26.508Z,33.70
2022-12-15T05:35:58.331Z,35.13
2022-12-15T05:38:25.815Z,33.63
2022-12-15T05:40:53.014Z,33.42
2022-12-15T05:43:26.067Z,36.03
2022-12-15T05:45:53.939Z,34.90
2022-12-15T05:48:21.070Z,39.17
2022-12-15T05:50:48.236Z,45.45
2022-12-15T05:53:17.046Z,64.05
2022-12-15T05:55:44.463Z,64.57
2022-12-15T05:58:11.604Z,58.50
2022-12-15T06:00:39.694Z,146.98
2022-12-15T06:03:07.023Z,118.93
2022-12-15T06:05:34.730Z,34.97
2022-12-15T06:08:02.076Z,31.73
2022-12-15T06:10:29.374Z,29.02
2022-12-15T06:12:56.610Z,32.05
2022-12-15T06:15:24.090Z,33.60
2022-12-15T06:17:53.562Z,32.03
2022-12-15T06:20:20.855Z,32.65
2022-12-15T06:22:50.087Z,32.92
2022-12-15T06:25:17.992Z,46.40
2022-12-15T06:27:45.333Z,42.35
2022-12-15T06:30:13.202Z,42.65
2022-12-15T06:32:40.455Z,40.08
2022-12-15T06:35:08.433Z,41.22
2022-12-15T06:37:35.854Z,34.50
2022-12-15T06:40:03.059Z,36.15
2022-12-15T06:42:30.312Z,28.55
2022-12-15T06:44:57.527Z,27.98
2022-12-15T06:47:25.147Z,25.83
2022-12-15T06:49:52.351Z,26.48
2022-12-15T06:52:20.040Z,27.27
2022-12-15T06:54:47.091Z,28.25
2022-12-15T06:57:14.495Z,28.40
2022-12-15T06:59:41.748Z,26.25
2022-12-15T07:02:17.026Z,27.38
2022-12-15T07:04:44.442Z,27.98
2022-12-15T07:07:11.627Z,36.30
2022-12-15T07:09:39.083Z,47.38
2022-12-15T07:12:07.800Z,50.85
2022-12-15T07:14:37.393Z,46.40
2022-12-15T07:17:04.682Z,43.60
2022-12-15T07:19:31.978Z,49.70
2022-12-15T07:22:00.323Z,61.95
2022-12-15T07:24:27.562Z,105.18
2022-12-15T07:26:55.036Z,87.65
2022-12-15T07:29:23.630Z,67.97
2022-12-15T07:31:51.303Z,69.00
2022-12-15T07:34:18.530Z,69.80
2022-12-15T07:36:51.612Z,60.17
2022-12-15T07:39:19.215Z,56.58
2022-12-15T07:41:46.905Z,50.38
2022-12-15T07:44:19.837Z,58.88
2022-12-15T07:46:49.433Z,63.13
2022-12-15T07:49:18.365Z,78.07
2022-12-15T07:51:45.633Z,77.28
2022-12-15T07:54:14.504Z,69.28
2022-12-15T07:56:42.255Z,92.63
2022-12-15T07:59:10.108Z,108.15
2022-12-15T08:01:37.498Z,73.93
2022-12-15T08:04:05.357Z,82.35
2022-12-15T08:06:33.300Z,85.63
2022-12-15T08:09:00.545Z,75.43
2022-12-15T08:11:28.526Z,52.35
2022-12-15T08:14:04.752Z,50.75
2022-12-15T08:16:35.010Z,65.43
2022-12-15T08:19:03.930Z,81.90
2022-12-15T08:21:32.264Z,99.82
2022-12-15T08:24:01.100Z,67.28
2022-12-15T08:26:31.015Z,54.35
2022-12-15T08:29:32.004Z,38.47
2022-12-15T08:31:51.530Z,70.40
2022-12-15T08:34:18.694Z,60.85
2022-12-15T08:36:45.884Z,73.20
2022-12-15T08:39:12.961Z,47.92
2022-12-15T08:41:41.348Z,49.45
2022-12-15T08:44:08.643Z,46.00
2022-12-15T08:46:40.763Z,40.72
2022-12-15T08:49:08.935Z,44.08
2022-12-15T08:51:37.809Z,46.13
2022-12-15T08:54:05.053Z,22.80
2022-12-15T08:56:32.395Z,29.85
2022-12-15T08:59:02.478Z,42.45
2022-12-15T09:01:33.018Z,32.20
2022-12-15T09:04:01.666Z,20.00
2022-12-15T09:06:31.998Z,17.17
2022-12-15T09:09:02.646Z,21.17
2022-12-15T09:11:31.023Z,24.20
2022-12-15T09:13:58.662Z,17.75
2022-12-15T09:16:33.881Z,16.88
2022-12-15T09:19:01.272Z,16.95
2022-12-15T09:21:30.139Z,15.25
2022-12-15T09:24:01.778Z,21.35
2022-12-15T09:26:34.394Z,37.58
2022-12-15T09:29:04.827Z,34.22
2022-12-15T09:31:36.868Z,26.27
2022-12-15T09:34:04.389Z,37.95
2022-12-15T09:36:35.352Z,23.33
2022-12-15T09:39:03.209Z,22.30
2022-12-15T09:41:33.457Z,19.15
2022-12-15T09:44:21.748Z,20.42
2022-12-15T09:47:07.279Z,20.85
2022-12-15T09:49:38.270Z,15.77
2022-12-15T09:52:14.817Z,19.40
2022-12-15T09:54:44.086Z,19.98
2022-12-15T09:57:36.364Z,23.50
2022-12-15T10:00:13.010Z,35.75
2022-12-15T10:06:29.773Z,21.23
2022-12-15T10:09:04.334Z,21.48
2022-12-15T10:11:55.177Z,18.58
2022-12-15T10:14:27.501Z,19.05
2022-12-15T10:17:17.859Z,20.27
2022-12-15T10:20:07.657Z,16.95
2022-12-15T10:22:37.867Z,17.08
2022-12-15T10:25:27.575Z,17.02
2022-12-15T10:28:27.947Z,19.40
2022-12-15T10:31:13.020Z,15.13
2022-12-15T10:33:47.189Z,18.08
2022-12-15T10:36:16.935Z,19.42
2022-12-15T10:38:50.437Z,15.75
2022-12-15T10:41:20.927Z,13.07
2022-12-15T10:43:50.754Z,15.85
2022-12-15T10:46:29.759Z,16.23
2022-12-15T10:49:00.074Z,15.23
2022-12-15T10:51:51.996Z,14.63
2022-12-15T10:54:19.269Z,15.63
2022-12-15T10:56:52.539Z,17.58
2022-12-15T11:01:50.850Z,18.40
2022-12-15T11:04:29.589Z,21.92
2022-12-15T11:07:02.360Z,16.65
2022-12-15T11:09:34.394Z,19.42
2022-12-15T11:12:20.637Z,18.70
2022-12-15T11:14:51.211Z,16.90
2022-12-15T11:17:23.765Z,23.58
2022-12-15T11:20:02.289Z,25.35
2022-12-15T11:22:47.069Z,24.45
2022-12-15T11:25:36.117Z,20.55
2022-12-15T11:28:11.382Z,19.13
2022-12-15T11:30:45.968Z,20.98
2022-12-15T11:33:13.416Z,23.52
2022-12-15T11:35:46.854Z,19.55
2022-12-15T11:38:40.691Z,17.80
2022-12-15T11:41:40.012Z,20.38
2022-12-15T11:44:27.897Z,19.90
2022-12-15T11:46:55.000Z,21.63
2022-12-15T11:49:45.818Z,41.63
2022-12-15T11:52:44.246Z,25.70
2022-12-15T11:55:35.922Z,30.05
2022-12-15T11:58:21.836Z,29.00
2022-12-15T12:01:13.899Z,26.17
2022-12-15T12:03:54.856Z,29.08
2022-12-15T12:06:32.574Z,23.23
2022-12-15T12:09:24.323Z,20.33
2022-12-15T12:12:12.259Z,20.05
2022-12-15T12:14:50.663Z,19.35
2022-12-15T12:17:18.150Z,22.45
2022-12-15T12:19:50.928Z,19.45
2022-12-15T12:22:27.131Z,17.95
2022-12-15T12:25:02.558Z,16.40
2022-12-15T12:27:54.529Z,20.58
2022-12-15T12:30:26.024Z,23.50
2022-12-15T12:32:56.599Z,24.65
2022-12-15T12:35:56.268Z,30.70
2022-12-15T12:38:31.673Z,36.22
2022-12-15T12:41:11.909Z,23.15
2022-12-15T12:43:44.836Z,22.35
2022-12-15T12:46:43.516Z,17.25
2022-12-15T12:49:22.881Z,19.65
2022-12-15T12:51:58.736Z,21.80
2022-12-15T12:54:40.341Z,28.55
2022-12-15T12:57:13.558Z,33.83
2022-12-15T12:59:58.479Z,23.52
2022-12-15T13:02:26.365Z,20.25
2022-12-15T13:05:24.965Z,23.75
2022-12-15T13:08:07.156Z,36.38
2022-12-15T13:10:36.433Z,37.22
2022-12-15T13:13:35.157Z,73.65
2022-12-15T13:16:26.477Z,47.30
2022-12-15T13:19:04.723Z,116.78
2022-12-15T13:21:44.442Z,42.45
2022-12-15T13:24:33.336Z,30.73
2022-12-15T13:27:09.575Z,28.20
2022-12-15T13:29:54.087Z,23.27
2022-12-15T13:32:33.530Z,23.65
2022-12-15T13:35:25.132Z,24.85
2022-12-15T13:37:59.015Z,22.50
2022-12-15T13:40:36.781Z,21.10
2022-12-15T13:43:03.920Z,23.30
2022-12-15T13:45:36.798Z,21.17
2022-12-15T13:48:38.140Z,21.88
2022-12-15T13:51:27.739Z,20.67
2022-12-15T13:54:12.389Z,22.45
2022-12-15T13:56:55.015Z,23.70
2022-12-15T13:59:53.824Z,24.88
2022-12-15T14:02:36.787Z,26.60
2022-12-15T14:05:19.021Z,26.15
2022-12-15T14:08:11.008Z,28.77
2022-12-15T14:10:43.697Z,60.33
2022-12-15T14:13:30.024Z,67.18
2022-12-15T14:16:20.154Z,54.42
2022-12-15T14:19:18.703Z,41.33
2022-12-15T14:21:54.777Z,41.90
2022-12-15T14:24:38.597Z,37.95
2022-12-15T14:27:07.083Z,36.85
2022-12-15T14:29:34.634Z,38.67
2022-12-15T14:32:02.428Z,45.38
2022-12-15T14:34:39.638Z,40.40
2022-12-15T14:37:21.263Z,50.78
2022-12-15T14:42:38.687Z,61.65
2022-12-15T14:45:06.603Z,52.55
2022-12-15T14:47:36.006Z,50.10
2022-12-15T14:50:04.563Z,52.92
2022-12-15T14:52:42.058Z,54.05
2022-12-15T14:55:21.402Z,51.60
2022-12-15T14:57:52.859Z,48.78
2022-12-15T15:00:36.474Z,52.53
2022-12-15T15:03:09.452Z,48.55
2022-12-15T15:05:57.356Z,55.22
2022-12-15T15:08:46.521Z,57.03
2022-12-15T15:11:35.624Z,56.35
2022-12-15T15:14:12.160Z,62.30
2022-12-15T15:16:40.083Z,87.47
2022-12-15T15:19:07.641Z,75.65
2022-12-15T15:21:37.369Z,76.65
2022-12-15T15:24:11.087Z,76.72
2022-12-15T15:26:40.168Z,76.28
2022-12-15T15:29:44.382Z,67.53
2022-12-15T15:32:17.278Z,61.28
2022-12-15T15:34:45.438Z,61.65
2022-12-15T15:37:23.328Z,62.22
2022-12-15T15:39:55.420Z,61.15
2022-12-15T15:42:26.555Z,65.40
2022-12-15T15:44:54.013Z,68.15
2022-12-15T15:47:27.681Z,66.97
2022-12-15T15:50:00.176Z,70.63
2022-12-15T15:52:29.946Z,73.53
2022-12-15T15:54:57.230Z,74.72
2022-12-15T15:57:24.665Z,75.80
2022-12-15T15:59:52.436Z,100.07
2022-12-15T16:02:19.932Z,181.43
2022-12-15T16:04:47.450Z,411.30
2022-12-15T16:07:27.821Z,264.45
2022-12-15T16:09:56.147Z,227.40
2022-12-15T16:12:41.314Z,280.25
2022-12-15T16:15:16.127Z,175.85
2022-12-15T16:17:43.635Z,164.05
2022-12-15T16:20:13.313Z,166.95
2022-12-15T16:22:42.755Z,157.63
2022-12-15T16:25:48.455Z,171.75
2022-12-15T16:28:23.341Z,181.43
2022-12-15T16:30:51.934Z,212.55
2022-12-15T16:33:20.098Z,199.48
2022-12-15T16:35:49.645Z,185.98
2022-12-15T16:38:28.735Z,204.57
2022-12-15T16:40:57.723Z,177.73
2022-12-15T16:43:28.979Z,178.93
2022-12-15T16:45:57.612Z,174.03
2022-12-15T16:48:25.154Z,170.80
2022-12-15T16:51:01.595Z,153.77
2022-12-15T16:53:35.527Z,145.05
2022-12-15T16:56:13.926Z,131.85
2022-12-15T16:58:41.097Z,134.32
2022-12-15T17:01:11.889Z,134.88
2022-12-15T17:03:39.730Z,136.73
2022-12-15T17:06:08.500Z,135.20
2022-12-15T17:08:42.694Z,128.85
2022-12-15T17:11:20.553Z,121.60
2022-12-15T17:13:51.434Z,112.30
2022-12-15T17:16:21.678Z,118.07
2022-12-15T17:18:49.917Z,118.25
2022-12-15T17:21:21.611Z,121.68
2022-12-15T17:23:55.631Z,146.98
2022-12-15T17:26:30.804Z,142.43
2022-12-15T17:29:27.756Z,172.63
2022-12-15T17:31:55.295Z,174.95
2022-12-15T17:34:25.842Z,181.63
2022-12-15T17:36:53.564Z,154.98
2022-12-15T17:39:22.699Z,152.45
2022-12-15T17:42:06.095Z,158.40
2022-12-15T17:44:37.788Z,138.20
2022-12-15T17:47:08.855Z,152.38
2022-12-15T17:49:38.582Z,128.43
2022-12-15T17:52:19.537Z,128.65
2022-12-15T17:54:46.770Z,133.30
2022-12-15T17:57:13.977Z,167.00
2022-12-15T17:59:41.461Z,127.65
2022-12-15T18:02:13.744Z,120.50
2022-12-15T18:04:42.089Z,123.60
2022-12-15T18:07:27.777Z,129.82
2022-12-15T18:09:55.213Z,136.90
2022-12-15T18:12:25.535Z,147.88
2022-12-15T18:14:53.797Z,145.27
2022-12-15T18:17:21.248Z,139.27
2022-12-15T18:19:49.513Z,162.05
2022-12-15T18:22:23.466Z,180.18
2022-12-15T18:24:53.374Z,189.60
2022-12-15T18:27:27.579Z,182.45
2022-12-15T18:29:57.051Z,176.05
2022-12-15T18:32:27.658Z,178.45
2022-12-15T18:34:56.520Z,196.45
2022-12-15T18:37:28.282Z,193.70
2022-12-15T18:39:58.298Z,385.80
2022-12-15T18:42:31.368Z,507.83
2022-12-15T18:45:00.505Z,441.02
2022-12-15T18:47:28.347Z,259.20
2022-12-15T18:49:56.403Z,241.60
2022-12-15T18:52:28.689Z,233.90
2022-12-15T18:54:57.398Z,244.52
2022-12-15T18:57:37.003Z,229.25
2022-12-15T19:00:10.688Z,209.77
2022-12-15T19:02:38.125Z,276.02
2022-12-15T19:05:06.691Z,253.30
2022-12-15T19:07:36.141Z,199.98
2022-12-15T19:10:03.946Z,205.15
2022-12-15T19:12:31.314Z,174.35
2022-12-15T19:15:01.853Z,210.30
2022-12-15T19:17:47.752Z,211.85
2022-12-15T19:20:39.083Z,182.82
2022-12-15T19:23:07.423Z,175.27
2022-12-15T19:25:35.601Z,172.15
2022-12-15T19:28:02.913Z,162.10
2022-12-15T19:30:41.629Z,140.20
2022-12-15T19:33:11.412Z,131.55
2022-12-15T19:35:41.675Z,128.30
2022-12-15T19:38:19.452Z,119.32
2022-12-15T19:40:48.078Z,120.30
2022-12-15T19:43:17.675Z,121.20
2022-12-15T19:45:45.163Z,111.20
2022-12-15T19:48:12.795Z,105.95
2022-12-15T19:50:42.235Z,106.00
2022-12-15T19:53:28.604Z,108.50
2022-12-15T19:55:59.604Z,103.22
2022-12-15T19:58:35.222Z,94.57
2022-12-15T20:01:08.250Z,79.95
2022-12-15T20:03:36.629Z,70.20
2022-12-15T20:06:06.797Z,112.93
2022-12-15T20:08:37.072Z,69.85
2022-12-15T20:11:05.268Z,62.92
2022-12-15T20:13:33.205Z,54.97
2022-12-15T20:16:00.735Z,49.88
2022-12-15T20:18:28.003Z,48.00
2022-12-15T20:20:55.871Z,47.45
2022-12-15T20:23:26.663Z,46.10
2022-12-15T20:25:56.099Z,54.40
2022-12-15T20:28:30.140Z,51.72
2022-12-15T20:30:58.427Z,382.40
2022-12-15T20:33:25.752Z,308.50
2022-12-15T20:35:53.629Z,171.80
2022-12-15T20:38:32.151Z,43.88
2022-12-15T20:41:01.318Z,33.83
2022-12-15T20:43:32.299Z,26.92
2022-12-15T20:46:33.988Z,30.30
2022-12-15T20:49:03.241Z,32.75
2022-12-15T20:51:33.503Z,29.30
2022-12-15T20:54:02.580Z,32.00
2022-12-15T20:56:29.900Z,32.70
2022-12-15T20:58:59.597Z,33.80
2022-12-15T21:01:35.491Z,44.75
2022-12-15T21:04:27.769Z,29.27
2022-12-15T21:06:55.968Z,28.38
2022-12-15T21:09:24.177Z,27.17
2022-12-15T21:11:54.513Z,28.00
2022-12-15T21:14:24.157Z,28.88
2022-12-15T21:16:51.676Z,30.95
2022-12-15T21:19:20.901Z,31.20
2022-12-15T21:21:51.920Z,27.25
2022-12-15T21:24:23.435Z,27.10
2022-12-15T21:26:51.791Z,27.35
2022-12-15T21:29:22.432Z,26.45
2022-12-15T21:31:50.638Z,29.40
2022-12-15T21:34:21.012Z,36.40
2022-12-15T21:36:52.089Z,34.17
2022-12-15T21:39:33.680Z,36.72
2022-12-15T21:42:06.049Z,31.50
2022-12-15T21:44:33.267Z,39.27
2022-12-15T21:47:00.466Z,40.03
2022-12-15T21:49:27.644Z,42.10
2022-12-15T21:51:58.095Z,39.60
2022-12-15T21:54:36.360Z,35.78
2022-12-15T21:57:03.934Z,39.33
2022-12-15T21:59:33.267Z,42.13
2022-12-15T22:02:24.417Z,38.60
2022-12-15T22:04:55.218Z,35.13
2022-12-15T22:07:22.581Z,35.22
2022-12-15T22:09:55.361Z,33.50
2022-12-15T22:12:24.602Z,34.63
2022-12-15T22:14:52.175Z,29.80
2022-12-15T22:17:21.136Z,28.73
2022-12-15T22:19:48.415Z,31.63
2022-12-15T22:22:16.755Z,35.13
2022-12-15T22:24:44.358Z,24.63
2022-12-15T22:27:22.835Z,28.98
2022-12-15T22:29:50.588Z,30.45
2022-12-15T22:32:18.181Z,28.55
2022-12-15T22:34:45.559Z,35.47
2022-12-15T22:37:12.928Z,40.10
2022-12-15T22:39:40.260Z,29.00
2022-12-15T22:42:08.653Z,26.92
2022-12-15T22:44:38.669Z,26.65
2022-12-15T22:47:06.847Z,28.40
2022-12-15T22:49:39.531Z,30.90
2022-12-15T22:52:16.366Z,30.95
2022-12-15T22:54:45.905Z,35.38
2022-12-15T22:57:23.838Z,61.47
2022-12-15T23:00:00.765Z,39.33
2022-12-15T23:02:31.354Z,30.48
2022-12-15T23:04:58.691Z,30.35
2022-12-15T23:07:26.183Z,32.17
2022-12-15T23:10:13.316Z,32.45
2022-12-15T23:12:40.652Z,30.58
2022-12-15T23:15:27.450Z,24.60
2022-12-15T23:17:55.068Z,22.80
2022-12-15T23:20:22.498Z,28.75
2022-12-15T23:22:49.621Z,33.95
2022-12-15T23:25:16.725Z,28.40
2022-12-15T23:27:43.839Z,31.08
2022-12-15T23:30:12.965Z,28.30
2022-12-15T23:32:40.152Z,30.25
2022-12-15T23:35:07.694Z,29.25
2022-12-15T23:37:35.034Z,29.42
2022-12-15T23:40:02.285Z,27.00
2022-12-15T23:42:29.579Z,30.02
2022-12-15T23:44:56.869Z,32.10
2022-12-15T23:47:24.448Z,30.42
2022-12-15T23:49:51.677Z,30.33
2022-12-15T23:52:19.938Z,24.92
2022-12-15T23:54:47.025Z,21.98
2022-12-15T23:57:14.345Z,24.77
2022-12-15T23:59:41.455Z,26.30
